Weather at Campo di Volo "San Marco Volo"

Public forecast

Using degrees Celsius for public forecast. Weather courtesy of forecast.io.

Closest aviation weather report (METAR) to Campo di Volo "San Marco Volo"

Closest report is Istrana Air Base, 6.3 nm (11.7 km) SE. Retrieved 2021/06/21 09:55 UTC (1 hour ago):

LIPS 210955Z 00000KT 9999 FEW030 32/23 Q1008 RMK FEW VIS MIN 9999 WIND THR26 00000KT WIND THR08 00000KT BLK BLU

Closest aviation forecast (TAF) to Campo di Volo "San Marco Volo"

Forecast is more than 12 hours old.

Closest forecast is Istrana Air Base, 6.3 nm (11.7 km) SE. Retrieved 2020/04/14 06:24 UTC (1 year ago):

TAF TAF LIPS 140800Z 1406/1418 05010KT CAVOK